Time;durP1;ratioP1;P1;durP2;ratioP2;P2;SDS_P1;SDS_P2;PMS_P1;PMS_P2;Temp;Humidity;BMP_temperature;BMP_pressure;BME280_temperature;BME280_humidity;BME280_pressure;Samples;Min_cycle;Max_cycle;Signal;HPM_P1;HPM_P2
2021/09/29 00:01:45;;;;;;;8.70;2.10;;;;;;;;;;4945317;28;20383;-68
2021/09/29 00:04:11;;;;;;;7.15;1.70;;;;;;;;;;4958501;28;20022;-68
2021/09/29 00:06:37;;;;;;;7.97;2.00;;;;;;;;;;4951375;28;20027;-69
2021/09/29 00:09:04;;;;;;;8.73;1.40;;;;;;;;;;4940489;28;20083;-68
2021/09/29 00:11:30;;;;;;;10.35;2.15;;;;;;;;;;4949321;28;20063;-68
2021/09/29 00:13:56;;;;;;;8.95;2.78;;;;;;;;;;4953005;28;20061;-68
2021/09/29 00:16:22;;;;;;;9.20;2.17;;;;;;;;;;4962249;28;20019;-68
2021/09/29 00:18:50;;;;;;;14.15;2.22;;;;;;;;;;4951313;28;20028;-69
2021/09/29 00:21:16;;;;;;;6.22;1.60;;;;;;;;;;4960610;28;20558;-68
2021/09/29 00:23:42;;;;;;;6.28;1.50;;;;;;;;;;4951024;28;20064;-67
2021/09/29 00:26:08;;;;;;;7.78;1.90;;;;;;;;;;4942770;28;20028;-68
2021/09/29 00:28:35;;;;;;;14.40;2.05;;;;;;;;;;4953086;28;20019;-68
2021/09/29 00:31:46;;;;;;;13.43;2.13;;;;;;;;;;4955625;28;20030;-68
2021/09/29 00:33:50;;;;;;;9.77;1.90;;;;;;;;;;4953644;28;20039;-68
2021/09/29 00:36:16;;;;;;;7.97;1.75;;;;;;;;;;4962623;28;20105;-68
2021/09/29 00:38:42;;;;;;;8.20;2.05;;;;;;;;;;4967595;28;20035;-68
2021/09/29 00:41:08;;;;;;;5.35;1.52;;;;;;;;;;4949304;28;20513;-69
2021/09/29 00:43:34;;;;;;;6.43;1.67;;;;;;;;;;4957351;28;20714;-68
2021/09/29 00:46:00;;;;;;;10.23;1.58;;;;;;;;;;4947331;28;20031;-68
2021/09/29 00:48:26;;;;;;;10.38;2.22;;;;;;;;;;4946973;28;20027;-68
2021/09/29 00:50:53;;;;;;;11.38;1.80;;;;;;;;;;4944242;28;20034;-67
2021/09/29 00:53:19;;;;;;;8.65;1.85;;;;;;;;;;4953220;28;20035;-68
2021/09/29 00:55:45;;;;;;;9.32;1.83;;;;;;;;;;4947034;28;20043;-68
2021/09/29 00:58:11;;;;;;;10.32;2.03;;;;;;;;;;4951632;28;20027;-68
2021/09/29 01:00:37;;;;;;;10.98;2.22;;;;;;;;;;4950941;28;20019;-68
2021/09/29 01:03:03;;;;;;;8.50;1.77;;;;;;;;;;4949314;28;20019;-68
2021/09/29 01:05:30;;;;;;;11.43;2.35;;;;;;;;;;4956378;28;20031;-68
2021/09/29 01:08:07;;;;;;;8.75;2.40;;;;;;;;;;4939100;28;20040;-68
2021/09/29 01:10:46;;;;;;;8.02;1.67;;;;;;;;;;4953902;28;20458;-68
2021/09/29 01:13:31;;;;;;;14.23;2.03;;;;;;;;;;4955111;28;20468;-69
2021/09/29 01:15:59;;;;;;;12.57;2.33;;;;;;;;;;4951222;28;20409;-68
2021/09/29 01:18:26;;;;;;;9.20;2.13;;;;;;;;;;4945988;29;20402;-68
2021/09/29 01:20:54;;;;;;;7.63;1.50;;;;;;;;;;4946320;28;20023;-68
2021/09/29 01:23:41;;;;;;;12.25;1.88;;;;;;;;;;4951268;28;20119;-68
2021/09/29 01:26:07;;;;;;;6.50;1.92;;;;;;;;;;4948310;28;20027;-67
2021/09/29 01:28:35;;;;;;;10.15;2.17;;;;;;;;;;4941630;28;20019;-68
2021/09/29 01:31:02;;;;;;;7.47;1.73;;;;;;;;;;4952194;28;20027;-68
2021/09/29 01:33:30;;;;;;;16.80;1.88;;;;;;;;;;4956791;28;20031;-68
2021/09/29 01:35:57;;;;;;;10.50;1.75;;;;;;;;;;4958888;28;20412;-68
2021/09/29 01:38:24;;;;;;;9.07;1.70;;;;;;;;;;4959485;28;20030;-68
2021/09/29 01:40:50;;;;;;;15.07;2.35;;;;;;;;;;4957803;28;20102;-68
2021/09/29 01:43:16;;;;;;;9.18;1.90;;;;;;;;;;4950955;28;20031;-68
2021/09/29 01:45:46;;;;;;;11.05;1.95;;;;;;;;;;4951332;28;20039;-68
2021/09/29 01:48:12;;;;;;;11.05;1.58;;;;;;;;;;4961452;28;20406;-68
2021/09/29 01:50:40;;;;;;;11.70;2.08;;;;;;;;;;4953033;28;20028;-68
2021/09/29 01:53:09;;;;;;;6.90;2.20;;;;;;;;;;4950546;28;20028;-68
2021/09/29 01:55:36;;;;;;;8.75;1.88;;;;;;;;;;4946739;28;20449;-68
2021/09/29 01:58:02;;;;;;;14.45;2.30;;;;;;;;;;4952950;28;20496;-68
2021/09/29 02:00:28;;;;;;;9.00;2.10;;;;;;;;;;4949491;28;20027;-69
2021/09/29 02:02:56;;;;;;;14.57;2.20;;;;;;;;;;4956207;28;20027;-68
2021/09/29 02:05:30;;;;;;;14.50;2.78;;;;;;;;;;4937679;28;20403;-69
2021/09/29 02:07:56;;;;;;;12.10;2.70;;;;;;;;;;4952335;28;20035;-69
2021/09/29 02:10:22;;;;;;;8.50;2.03;;;;;;;;;;4948688;28;20482;-69
2021/09/29 02:12:48;;;;;;;7.28;1.95;;;;;;;;;;4937157;28;20087;-69
2021/09/29 02:15:14;;;;;;;13.32;2.28;;;;;;;;;;4953619;28;20078;-70
2021/09/29 02:17:40;;;;;;;9.20;2.30;;;;;;;;;;4955514;28;20023;-70
2021/09/29 02:20:06;;;;;;;7.75;2.30;;;;;;;;;;4949740;28;20546;-71
2021/09/29 02:22:32;;;;;;;14.40;2.53;;;;;;;;;;4934510;29;20091;-70
2021/09/29 02:24:59;;;;;;;9.88;2.40;;;;;;;;;;4953092;28;20568;-70
2021/09/29 02:27:25;;;;;;;12.02;2.45;;;;;;;;;;4951298;28;20035;-70
2021/09/29 02:29:51;;;;;;;13.13;2.40;;;;;;;;;;4952417;28;20500;-70
2021/09/29 02:32:17;;;;;;;8.95;2.80;;;;;;;;;;4950915;28;20043;-71
2021/09/29 02:34:43;;;;;;;8.73;2.03;;;;;;;;;;4947408;28;20158;-70
2021/09/29 02:37:09;;;;;;;11.70;2.75;;;;;;;;;;4947431;28;20023;-70
2021/09/29 02:39:35;;;;;;;8.25;2.22;;;;;;;;;;4948487;28;20111;-70
2021/09/29 02:42:03;;;;;;;9.60;2.58;;;;;;;;;;4943526;28;20067;-70
2021/09/29 02:44:29;;;;;;;17.25;3.20;;;;;;;;;;4946703;28;20743;-70
2021/09/29 02:46:55;;;;;;;9.73;2.20;;;;;;;;;;4945413;28;20402;-70
2021/09/29 02:49:22;;;;;;;8.13;2.22;;;;;;;;;;4949313;28;20078;-70
2021/09/29 02:51:48;;;;;;;10.82;2.28;;;;;;;;;;4938861;28;20074;-70
2021/09/29 02:54:14;;;;;;;18.10;2.67;;;;;;;;;;4951474;28;20296;-70
2021/09/29 02:56:40;;;;;;;13.70;2.80;;;;;;;;;;4947630;28;20035;-71
2021/09/29 02:59:09;;;;;;;13.65;2.58;;;;;;;;;;4952473;28;20019;-70
2021/09/29 03:01:36;;;;;;;9.20;2.50;;;;;;;;;;4948127;28;20027;-70
2021/09/29 03:04:02;;;;;;;14.27;2.60;;;;;;;;;;4941068;28;20409;-70
2021/09/29 03:06:28;;;;;;;13.85;2.80;;;;;;;;;;4947919;28;20027;-70
2021/09/29 03:08:54;;;;;;;18.42;2.80;;;;;;;;;;4951365;28;20038;-70
2021/09/29 03:11:20;;;;;;;12.02;2.95;;;;;;;;;;4946152;28;20027;-70
2021/09/29 03:13:47;;;;;;;10.63;2.30;;;;;;;;;;4953811;28;20096;-70
2021/09/29 03:16:13;;;;;;;15.10;2.85;;;;;;;;;;4951988;28;20383;-70
2021/09/29 03:18:39;;;;;;;13.65;2.63;;;;;;;;;;4943954;28;20027;-70
2021/09/29 03:21:06;;;;;;;6.43;2.90;;;;;;;;;;4946437;28;20039;-70
2021/09/29 03:23:32;;;;;;;13.65;2.80;;;;;;;;;;4945864;28;20417;-70
2021/09/29 03:25:58;;;;;;;12.13;2.40;;;;;;;;;;4947930;28;20050;-70
2021/09/29 03:28:24;;;;;;;7.93;3.13;;;;;;;;;;4947944;28;20053;-70
2021/09/29 03:30:50;;;;;;;9.45;2.50;;;;;;;;;;4951155;28;20032;-70
2021/09/29 03:33:16;;;;;;;11.50;3.00;;;;;;;;;;4952318;28;20494;-70
2021/09/29 03:35:42;;;;;;;7.65;2.70;;;;;;;;;;4941730;28;20059;-70
2021/09/29 03:38:08;;;;;;;10.52;2.35;;;;;;;;;;4949786;28;20026;-71
2021/09/29 03:40:34;;;;;;;11.32;2.72;;;;;;;;;;4946031;28;20508;-71
2021/09/29 03:43:00;;;;;;;11.80;2.90;;;;;;;;;;4958574;28;20022;-71
2021/09/29 03:45:27;;;;;;;9.93;2.90;;;;;;;;;;4950620;28;20490;-71
2021/09/29 03:47:53;;;;;;;11.48;2.22;;;;;;;;;;4961743;28;20268;-71
2021/09/29 03:50:19;;;;;;;11.15;1.90;;;;;;;;;;4950584;28;20077;-71
2021/09/29 03:52:45;;;;;;;11.63;1.98;;;;;;;;;;4958584;28;20038;-71
2021/09/29 03:55:11;;;;;;;12.10;3.00;;;;;;;;;;4945880;28;20031;-72
2021/09/29 03:57:39;;;;;;;9.65;2.00;;;;;;;;;;4947550;28;20024;-72
2021/09/29 04:00:07;;;;;;;5.10;1.70;;;;;;;;;;4946556;28;20027;-73
2021/09/29 04:02:33;;;;;;;10.55;2.00;;;;;;;;;;4945060;28;20035;-73
2021/09/29 04:04:59;;;;;;;9.35;1.90;;;;;;;;;;4949744;28;20027;-73
2021/09/29 04:07:25;;;;;;;8.80;1.77;;;;;;;;;;4948238;28;20036;-74
2021/09/29 04:09:51;;;;;;;19.42;2.90;;;;;;;;;;4958718;28;20042;-74
2021/09/29 04:12:18;;;;;;;20.10;3.03;;;;;;;;;;4945593;28;20054;-74
2021/09/29 04:14:44;;;;;;;10.23;2.35;;;;;;;;;;4943160;28;20031;-75
2021/09/29 04:17:10;;;;;;;9.43;2.85;;;;;;;;;;4950821;28;20106;-74
2021/09/29 04:19:36;;;;;;;13.82;2.38;;;;;;;;;;4942892;28;20067;-75
2021/09/29 04:22:02;;;;;;;11.75;2.38;;;;;;;;;;4945902;28;20042;-75
2021/09/29 04:24:29;;;;;;;11.57;2.63;;;;;;;;;;4943936;28;20034;-75
2021/09/29 04:26:55;;;;;;;13.85;2.58;;;;;;;;;;4946992;28;20027;-76
2021/09/29 04:29:21;;;;;;;6.53;2.05;;;;;;;;;;4950956;28;20031;-75
2021/09/29 04:31:47;;;;;;;7.82;2.03;;;;;;;;;;4949907;28;20042;-75
2021/09/29 04:34:13;;;;;;;6.53;1.73;;;;;;;;;;4951235;28;20086;-76
2021/09/29 04:36:40;;;;;;;6.93;1.75;;;;;;;;;;4954177;28;20111;-76
2021/09/29 04:39:06;;;;;;;6.22;1.70;;;;;;;;;;4945910;28;20039;-76
2021/09/29 04:41:32;;;;;;;7.82;1.50;;;;;;;;;;4956213;28;20023;-77
2021/09/29 04:43:58;;;;;;;11.80;1.70;;;;;;;;;;4955299;28;20042;-78
2021/09/29 04:46:24;;;;;;;11.43;1.98;;;;;;;;;;4956970;28;20095;-80
2021/09/29 04:48:50;;;;;;;6.35;1.30;;;;;;;;;;4955353;28;20031;-78
2021/09/29 04:51:16;;;;;;;11.80;1.95;;;;;;;;;;4952774;28;20112;-79
2021/09/29 04:53:42;;;;;;;8.85;1.63;;;;;;;;;;4952499;28;20509;-78
2021/09/29 04:56:08;;;;;;;6.82;1.73;;;;;;;;;;4952326;28;20043;-80
2021/09/29 04:58:36;;;;;;;8.85;1.70;;;;;;;;;;4959341;28;20481;-79
2021/09/29 05:01:02;;;;;;;6.50;1.58;;;;;;;;;;4953964;28;20028;-82
2021/09/29 05:03:29;;;;;;;10.60;1.60;;;;;;;;;;4952655;29;20106;-81
2021/09/29 05:05:55;;;;;;;11.13;1.80;;;;;;;;;;4947438;28;20057;-83
2021/09/29 05:08:24;;;;;;;7.38;1.67;;;;;;;;;;4956651;28;20572;-81
2021/09/29 05:10:54;;;;;;;11.57;2.05;;;;;;;;;;4970813;28;20050;-81
2021/09/29 05:13:30;;;;;;;10.00;2.47;;;;;;;;;;4951098;29;20440;-80
2021/09/29 05:15:56;;;;;;;8.48;1.65;;;;;;;;;;4957834;28;20645;-81
2021/09/29 05:18:22;;;;;;;13.80;2.20;;;;;;;;;;4946765;28;20024;-78
2021/09/29 05:20:48;;;;;;;11.38;2.50;;;;;;;;;;4951826;28;20074;-81
2021/09/29 05:23:14;;;;;;;8.63;1.40;;;;;;;;;;4948401;28;20130;-79
2021/09/29 05:25:40;;;;;;;11.18;1.67;;;;;;;;;;4950442;29;20462;-78
2021/09/29 05:28:08;;;;;;;10.15;1.58;;;;;;;;;;4952393;28;20027;-78
2021/09/29 05:30:34;;;;;;;9.40;1.63;;;;;;;;;;4947299;28;20031;-79
2021/09/29 05:33:00;;;;;;;5.90;1.40;;;;;;;;;;4943815;28;20486;-78
2021/09/29 05:35:26;;;;;;;9.27;2.00;;;;;;;;;;4948402;28;20031;-78
2021/09/29 05:37:52;;;;;;;7.47;1.30;;;;;;;;;;4941394;29;20027;-78
2021/09/29 05:40:18;;;;;;;6.85;1.33;;;;;;;;;;4954703;29;20054;-77
2021/09/29 05:42:44;;;;;;;4.47;1.33;;;;;;;;;;4958240;28;20027;-80
2021/09/29 05:45:10;;;;;;;8.23;1.13;;;;;;;;;;4952760;28;20033;-79
2021/09/29 05:47:37;;;;;;;3.83;1.08;;;;;;;;;;4957016;28;20027;-78
2021/09/29 05:50:03;;;;;;;7.63;1.60;;;;;;;;;;4950950;28;20042;-79
2021/09/29 05:52:30;;;;;;;4.95;0.93;;;;;;;;;;4948204;29;20475;-79
2021/09/29 05:54:56;;;;;;;3.45;1.13;;;;;;;;;;4946201;28;20019;-78
2021/09/29 05:57:22;;;;;;;2.15;1.00;;;;;;;;;;4949824;28;20035;-78
2021/09/29 05:59:50;;;;;;;4.70;1.08;;;;;;;;;;4952752;28;20027;-78
2021/09/29 06:02:16;;;;;;;2.70;0.93;;;;;;;;;;4951740;28;20145;-78
2021/09/29 06:04:42;;;;;;;2.92;0.80;;;;;;;;;;4946976;28;20493;-77
2021/09/29 06:07:15;;;;;;;5.60;0.80;;;;;;;;;;4956000;28;20118;-78
2021/09/29 06:09:41;;;;;;;4.70;1.05;;;;;;;;;;4943059;29;20152;-79
2021/09/29 06:12:08;;;;;;;6.85;1.00;;;;;;;;;;4950982;28;20036;-78
2021/09/29 06:14:34;;;;;;;4.70;1.20;;;;;;;;;;4943572;29;20047;-78
2021/09/29 06:17:20;;;;;;;7.13;1.15;;;;;;;;;;4949528;28;20023;-77
2021/09/29 06:19:46;;;;;;;7.70;1.83;;;;;;;;;;4947356;28;20059;-78
2021/09/29 06:22:12;;;;;;;15.50;3.03;;;;;;;;;;4948007;28;20051;-77
2021/09/29 06:24:38;;;;;;;11.95;2.60;;;;;;;;;;4949708;28;20023;-78
2021/09/29 06:27:05;;;;;;;17.38;3.42;;;;;;;;;;4948983;28;20034;-76
2021/09/29 06:29:31;;;;;;;14.45;3.40;;;;;;;;;;4952578;28;20031;-78
2021/09/29 06:31:57;;;;;;;14.65;2.80;;;;;;;;;;4949873;28;20023;-79
2021/09/29 06:34:26;;;;;;;17.70;2.70;;;;;;;;;;4946458;28;20031;-78
2021/09/29 06:36:52;;;;;;;19.92;4.03;;;;;;;;;;4949065;28;20520;-77
2021/09/29 06:39:18;;;;;;;16.38;3.38;;;;;;;;;;4951145;28;20027;-77
2021/09/29 06:41:45;;;;;;;23.10;5.50;;;;;;;;;;4952071;28;20023;-78
2021/09/29 06:44:11;;;;;;;16.90;4.07;;;;;;;;;;4948847;28;20055;-78
2021/09/29 06:46:37;;;;;;;18.55;3.40;;;;;;;;;;4948623;28;20027;-77
2021/09/29 06:49:04;;;;;;;14.00;2.83;;;;;;;;;;4951633;28;20031;-77
2021/09/29 06:51:30;;;;;;;7.63;1.88;;;;;;;;;;4946921;28;20046;-76
2021/09/29 06:53:56;;;;;;;15.73;1.73;;;;;;;;;;4939495;28;20024;-76
2021/09/29 06:56:22;;;;;;;9.55;1.52;;;;;;;;;;4948915;28;20053;-76
2021/09/29 06:58:51;;;;;;;11.82;1.50;;;;;;;;;;4952058;28;20130;-77
2021/09/29 07:01:17;;;;;;;7.60;2.17;;;;;;;;;;4946531;28;20023;-77
2021/09/29 07:03:43;;;;;;;11.73;3.38;;;;;;;;;;4949789;28;20047;-77
2021/09/29 07:06:10;;;;;;;18.15;3.60;;;;;;;;;;4947190;28;20031;-75
2021/09/29 07:08:36;;;;;;;13.63;2.17;;;;;;;;;;4945906;28;20064;-76
2021/09/29 07:11:02;;;;;;;5.22;1.45;;;;;;;;;;4949523;28;20493;-75
2021/09/29 07:13:28;;;;;;;4.57;1.17;;;;;;;;;;4951669;28;20034;-76
2021/09/29 07:15:54;;;;;;;11.32;1.60;;;;;;;;;;4951354;28;20027;-77
2021/09/29 07:18:26;;;;;;;16.38;2.58;;;;;;;;;;4952216;28;20035;-77
2021/09/29 07:20:52;;;;;;;12.63;2.13;;;;;;;;;;4951453;28;20031;-77
2021/09/29 07:23:18;;;;;;;8.43;1.90;;;;;;;;;;4952794;28;20043;-75
2021/09/29 07:25:44;;;;;;;12.75;1.63;;;;;;;;;;4953649;28;20398;-77
2021/09/29 07:28:11;;;;;;;8.77;1.60;;;;;;;;;;4955524;28;20106;-77
2021/09/29 07:30:38;;;;;;;5.45;1.50;;;;;;;;;;4949021;28;20034;-76
2021/09/29 07:33:04;;;;;;;10.25;2.00;;;;;;;;;;4951290;28;20089;-77
2021/09/29 07:35:31;;;;;;;10.02;1.95;;;;;;;;;;4950485;28;20038;-77
2021/09/29 07:37:57;;;;;;;6.93;2.03;;;;;;;;;;4951643;28;20043;-77
2021/09/29 07:40:23;;;;;;;6.85;1.70;;;;;;;;;;4958018;28;20019;-77
2021/09/29 07:42:50;;;;;;;9.20;1.92;;;;;;;;;;4955770;28;20031;-77
2021/09/29 07:45:16;;;;;;;7.35;1.70;;;;;;;;;;4946107;28;20054;-76
2021/09/29 07:47:42;;;;;;;10.57;2.10;;;;;;;;;;4952721;29;20554;-76
2021/09/29 07:50:08;;;;;;;8.30;1.73;;;;;;;;;;4950018;28;20051;-76
2021/09/29 07:52:35;;;;;;;13.35;1.83;;;;;;;;;;4952739;28;20393;-73
2021/09/29 07:55:01;;;;;;;10.75;1.92;;;;;;;;;;4947041;28;20027;-77
2021/09/29 07:57:27;;;;;;;13.93;2.63;;;;;;;;;;4948694;29;20820;-76
2021/09/29 07:59:53;;;;;;;12.05;2.15;;;;;;;;;;4952735;28;20404;-76
2021/09/29 08:02:19;;;;;;;9.50;2.13;;;;;;;;;;4953808;28;20027;-75
2021/09/29 08:04:46;;;;;;;4.97;1.42;;;;;;;;;;4947300;28;20023;-76
2021/09/29 08:07:13;;;;;;;11.45;1.60;;;;;;;;;;4950251;28;20051;-76
2021/09/29 08:09:39;;;;;;;10.65;1.75;;;;;;;;;;4952173;28;20573;-75
2021/09/29 08:12:05;;;;;;;13.70;1.88;;;;;;;;;;4953073;28;20117;-76
2021/09/29 08:14:32;;;;;;;13.32;1.70;;;;;;;;;;4952697;28;20445;-76
2021/09/29 08:16:59;;;;;;;16.05;2.10;;;;;;;;;;4950183;28;20383;-76
2021/09/29 08:19:25;;;;;;;14.55;2.17;;;;;;;;;;4953906;28;20063;-75
2021/09/29 08:21:51;;;;;;;8.63;1.60;;;;;;;;;;4953043;29;20031;-76
2021/09/29 08:24:24;;;;;;;12.48;2.17;;;;;;;;;;4952124;28;20795;-73
2021/09/29 08:45:28;;;;;;;11.25;2.00;;;;;;;;;;4944832;28;20039;-75
2021/09/29 08:48:04;;;;;;;8.32;1.35;;;;;;;;;;4950140;28;20572;-74
2021/09/29 08:51:19;;;;;;;8.10;1.63;;;;;;;;;;4949038;28;20031;-73
2021/09/29 09:17:25;;;;;;;23.30;2.47;;;;;;;;;;4951026;28;20126;-75
2021/09/29 09:19:51;;;;;;;16.73;3.17;;;;;;;;;;4948316;28;20026;-75
2021/09/29 09:22:18;;;;;;;16.90;2.80;;;;;;;;;;4952425;28;20035;-75
2021/09/29 09:24:52;;;;;;;11.60;2.13;;;;;;;;;;4943888;28;20477;-76
2021/09/29 09:27:18;;;;;;;15.88;2.53;;;;;;;;;;4947998;28;20047;-74
2021/09/29 09:29:49;;;;;;;10.43;2.08;;;;;;;;;;4948070;28;20039;-73
2021/09/29 09:32:18;;;;;;;9.15;1.60;;;;;;;;;;4945901;29;20516;-76
2021/09/29 09:34:44;;;;;;;16.55;3.00;;;;;;;;;;4939123;28;20158;-75
2021/09/29 09:37:14;;;;;;;15.93;2.92;;;;;;;;;;4942380;28;20105;-74
2021/09/29 09:39:41;;;;;;;15.27;2.63;;;;;;;;;;4950858;28;20040;-74
2021/09/29 09:42:08;;;;;;;16.35;1.95;;;;;;;;;;4949679;28;20075;-76
2021/09/29 09:44:35;;;;;;;17.20;2.58;;;;;;;;;;4948835;28;20023;-77
2021/09/29 09:47:12;;;;;;;11.93;1.65;;;;;;;;;;4948780;28;20112;-74
2021/09/29 09:50:07;;;;;;;9.50;1.98;;;;;;;;;;4949167;28;20458;-75
2021/09/29 09:52:41;;;;;;;6.05;1.38;;;;;;;;;;4936411;28;20047;-75
2021/09/29 09:55:10;;;;;;;7.25;1.42;;;;;;;;;;4946012;29;20490;-75
2021/09/29 09:57:39;;;;;;;9.57;1.48;;;;;;;;;;4952304;28;20031;-77
2021/09/29 10:00:06;;;;;;;12.15;1.77;;;;;;;;;;4946634;28;20035;-74
2021/09/29 10:02:43;;;;;;;6.50;1.20;;;;;;;;;;4943306;29;20050;-75
2021/09/29 10:05:10;;;;;;;10.15;1.42;;;;;;;;;;4945578;28;20114;-76
2021/09/29 10:07:36;;;;;;;9.88;1.50;;;;;;;;;;4951395;29;20118;-76
2021/09/29 10:10:07;;;;;;;14.27;1.88;;;;;;;;;;4948536;28;20019;-73
2021/09/29 10:15:26;;;;;;;12.88;2.13;;;;;;;;;;4946368;29;20395;-74
2021/09/29 10:29:03;;;;;;;12.02;1.42;;;;;;;;;;4943919;28;20525;-74
2021/09/29 10:34:40;;;;;;;9.90;1.20;;;;;;;;;;4959061;28;20332;-75
2021/09/29 11:09:51;;;;;;;6.82;1.40;;;;;;;;;;4947347;28;20035;-73
2021/09/29 11:28:58;;;;;;;7.22;1.38;;;;;;;;;;4943655;28;20512;-72
2021/09/29 11:31:34;;;;;;;8.13;1.50;;;;;;;;;;4948119;28;20038;-72
2021/09/29 11:34:12;;;;;;;9.30;1.30;;;;;;;;;;4942178;29;20050;-72
2021/09/29 12:11:30;;;;;;;4.70;1.08;;;;;;;;;;4948590;28;20036;-72
2021/09/29 12:14:00;;;;;;;6.53;1.23;;;;;;;;;;4947534;28;20019;-70
2021/09/29 12:16:32;;;;;;;5.53;1.20;;;;;;;;;;4945725;28;20526;-71
2021/09/29 12:18:58;;;;;;;;;;;;;;;;;;4952266;28;20485;-71
2021/09/29 12:21:33;;;;;;;8.75;1.50;;;;;;;;;;4952089;28;19910;-71
2021/09/29 12:23:59;;;;;;;10.95;1.75;;;;;;;;;;4948241;28;20383;-71
2021/09/29 12:26:28;;;;;;;9.52;1.73;;;;;;;;;;4950349;28;20031;-70
2021/09/29 12:29:09;;;;;;;7.63;1.50;;;;;;;;;;4953101;28;20027;-70
2021/09/29 12:32:01;;;;;;;6.75;1.33;;;;;;;;;;4943493;29;20488;-70
2021/09/29 12:34:28;;;;;;;7.72;1.17;;;;;;;;;;4944396;28;20063;-72
2021/09/29 12:36:55;;;;;;;11.15;1.55;;;;;;;;;;4933660;29;20449;-71
2021/09/29 12:39:22;;;;;;;5.70;1.80;;;;;;;;;;4947010;28;20056;-69
2021/09/29 12:41:49;;;;;;;9.45;1.65;;;;;;;;;;4952800;28;20468;-70
2021/09/29 12:44:16;;;;;;;11.20;1.45;;;;;;;;;;4948926;28;20035;-69
2021/09/29 12:46:47;;;;;;;8.55;1.30;;;;;;;;;;4946035;28;20054;-71
2021/09/29 12:49:19;;;;;;;8.73;1.23;;;;;;;;;;4951951;28;20163;-70
2021/09/29 12:51:47;;;;;;;7.53;1.40;;;;;;;;;;4943220;28;20039;-71
2021/09/29 12:54:20;;;;;;;6.07;1.15;;;;;;;;;;4949636;28;20499;-70
2021/09/29 12:56:46;;;;;;;6.97;1.48;;;;;;;;;;4947846;28;20035;-71
2021/09/29 12:59:12;;;;;;;8.05;1.33;;;;;;;;;;4951323;28;20023;-70
2021/09/29 13:01:38;;;;;;;13.55;2.10;;;;;;;;;;4950317;28;20038;-70
2021/09/29 13:04:04;;;;;;;9.60;1.50;;;;;;;;;;4945896;28;20031;-71
2021/09/29 13:06:31;;;;;;;9.95;1.60;;;;;;;;;;4948320;28;20027;-69
2021/09/29 13:08:57;;;;;;;18.25;2.72;;;;;;;;;;4951358;28;20027;-70
2021/09/29 13:11:23;;;;;;;7.70;1.45;;;;;;;;;;4938940;28;20112;-70
2021/09/29 13:13:49;;;;;;;10.48;2.17;;;;;;;;;;4945524;28;20031;-70
2021/09/29 13:16:15;;;;;;;8.57;1.75;;;;;;;;;;4945167;28;20167;-69
2021/09/29 13:18:54;;;;;;;8.27;1.23;;;;;;;;;;4945212;28;20540;-69
2021/09/29 13:21:39;;;;;;;8.52;1.50;;;;;;;;;;4948077;28;20032;-69
2021/09/29 13:24:14;;;;;;;9.75;1.27;;;;;;;;;;4947383;28;20035;-68
2021/09/29 13:37:46;;;;;;;3.88;1.27;;;;;;;;;;4923329;29;20040;-68
2021/09/29 13:40:13;;;;;;;13.23;1.63;;;;;;;;;;4931548;29;20067;-69
2021/09/29 13:42:39;;;;;;;9.07;1.58;;;;;;;;;;4932747;28;20043;-71
2021/09/29 13:45:06;;;;;;;8.68;1.70;;;;;;;;;;4944755;28;20023;-69
2021/09/29 13:47:33;;;;;;;8.00;1.63;;;;;;;;;;4942858;28;20027;-70
2021/09/29 13:49:59;;;;;;;5.65;1.10;;;;;;;;;;4950416;28;20495;-70
2021/09/29 13:52:26;;;;;;;7.03;1.45;;;;;;;;;;4937223;28;20031;-69
2021/09/29 13:54:56;;;;;;;8.13;2.00;;;;;;;;;;4933090;28;20079;-68
2021/09/29 13:57:43;;;;;;;12.60;2.05;;;;;;;;;;4950572;28;20027;-69
2021/09/29 14:32:22;;;;;;;16.75;2.40;;;;;;;;;;4944627;28;20040;-68
2021/09/29 14:34:48;;;;;;;17.60;2.30;;;;;;;;;;4942227;28;20035;-68
2021/09/29 14:37:15;;;;;;;14.05;1.83;;;;;;;;;;4945309;28;20469;-69
2021/09/29 14:39:41;;;;;;;12.55;1.35;;;;;;;;;;4947413;28;20078;-69
2021/09/29 14:42:08;;;;;;;14.10;1.92;;;;;;;;;;4943417;28;20023;-69
2021/09/29 14:44:35;;;;;;;12.85;1.35;;;;;;;;;;4944000;28;20347;-70
2021/09/29 14:47:04;;;;;;;18.48;2.25;;;;;;;;;;4944954;28;20031;-71
2021/09/29 14:49:31;;;;;;;11.82;1.67;;;;;;;;;;4941198;28;20051;-70
2021/09/29 14:51:59;;;;;;;17.13;1.75;;;;;;;;;;4939840;28;20031;-72
2021/09/29 14:54:25;;;;;;;8.10;1.38;;;;;;;;;;4958343;28;20049;-70
2021/09/29 14:56:51;;;;;;;4.10;0.75;;;;;;;;;;4947948;28;20097;-70
2021/09/29 14:59:18;;;;;;;7.22;1.02;;;;;;;;;;4949683;28;20034;-69
2021/09/29 15:01:44;;;;;;;6.47;1.63;;;;;;;;;;4951337;28;20039;-69
2021/09/29 15:04:10;;;;;;;7.05;1.13;;;;;;;;;;4943476;28;20031;-70
2021/09/29 15:06:38;;;;;;;9.23;1.58;;;;;;;;;;4944617;28;20090;-71
2021/09/29 15:09:04;;;;;;;9.50;1.85;;;;;;;;;;4935326;29;20035;-71
2021/09/29 15:11:30;;;;;;;10.20;1.52;;;;;;;;;;4941132;28;20470;-70
2021/09/29 15:14:00;;;;;;;12.57;2.05;;;;;;;;;;4945353;28;20030;-69
2021/09/29 15:19:14;;;;;;;7.10;1.63;;;;;;;;;;4951037;28;20105;-68
2021/09/29 15:32:24;;;;;;;22.58;2.40;;;;;;;;;;4945207;28;20105;-68
2021/09/29 15:46:19;;;;;;;8.10;2.10;;;;;;;;;;4941587;28;20528;-68
2021/09/29 15:49:02;;;;;;;13.03;2.43;;;;;;;;;;4969091;28;20035;-68
2021/09/29 16:02:17;;;;;;;12.85;2.08;;;;;;;;;;4947710;28;20344;-69
2021/09/29 16:15:47;;;;;;;8.32;1.85;;;;;;;;;;4959867;28;20031;-74
2021/09/29 16:31:29;;;;;;;16.08;2.90;;;;;;;;;;4946230;28;20032;-74
2021/09/29 16:33:58;;;;;;;14.38;2.40;;;;;;;;;;4951752;28;20031;-73
2021/09/29 16:36:24;;;;;;;10.00;2.65;;;;;;;;;;4946225;28;20024;-74
2021/09/29 16:38:51;;;;;;;13.35;2.90;;;;;;;;;;4949993;28;20138;-74
2021/09/29 16:41:18;;;;;;;14.07;2.45;;;;;;;;;;4944643;28;20027;-74
2021/09/29 16:43:45;;;;;;;14.15;2.50;;;;;;;;;;4949817;28;20469;-72
2021/09/29 16:46:14;;;;;;;8.18;1.90;;;;;;;;;;4939023;28;20035;-73
2021/09/29 16:48:40;;;;;;;8.93;1.90;;;;;;;;;;4946591;28;20099;-73
2021/09/29 16:53:39;;;;;;;8.48;2.22;;;;;;;;;;4950063;28;20034;-73
2021/09/29 16:56:05;;;;;;;14.63;2.65;;;;;;;;;;4951969;28;20382;-73
2021/09/29 17:01:12;;;;;;;14.13;2.00;;;;;;;;;;4950712;28;20039;-72
2021/09/29 17:03:38;;;;;;;15.70;1.98;;;;;;;;;;4939502;28;20547;-76
2021/09/29 17:06:05;;;;;;;12.95;3.03;;;;;;;;;;4940480;28;20040;-72
2021/09/29 17:08:32;;;;;;;12.82;1.73;;;;;;;;;;4954013;28;20081;-72
2021/09/29 17:10:58;;;;;;;10.75;1.52;;;;;;;;;;4943501;28;20066;-72
2021/09/29 17:13:26;;;;;;;13.32;1.88;;;;;;;;;;4949795;28;20417;-71
2021/09/29 17:15:56;;;;;;;11.25;2.67;;;;;;;;;;4941658;28;20055;-72
2021/09/29 17:18:24;;;;;;;12.38;3.40;;;;;;;;;;4944522;28;20031;-71
2021/09/29 17:20:50;;;;;;;11.55;2.92;;;;;;;;;;4951714;28;20278;-71
2021/09/29 17:23:17;;;;;;;7.13;1.70;;;;;;;;;;4934029;28;20095;-72
2021/09/29 17:25:45;;;;;;;15.93;3.22;;;;;;;;;;4942296;29;20465;-72
2021/09/29 17:28:15;;;;;;;10.80;1.70;;;;;;;;;;4943946;29;20155;-71
2021/09/29 17:30:43;;;;;;;12.07;1.65;;;;;;;;;;4951299;28;20417;-71
2021/09/29 17:52:34;;;;;;;7.00;1.70;;;;;;;;;;4947494;28;20037;-72
2021/09/29 17:55:00;;;;;;;11.35;2.28;;;;;;;;;;4946721;28;20122;-71
2021/09/29 17:57:26;;;;;;;10.77;2.42;;;;;;;;;;4937786;29;20027;-72
2021/09/29 17:59:53;;;;;;;8.68;1.60;;;;;;;;;;4949237;28;20046;-72
2021/09/29 18:02:27;;;;;;;8.18;1.83;;;;;;;;;;4947814;29;20082;-71
2021/09/29 18:04:55;;;;;;;11.18;2.42;;;;;;;;;;4946198;29;20037;-72
2021/09/29 18:09:47;;;;;;;9.73;2.03;;;;;;;;;;4952041;28;20039;-72
2021/09/29 18:12:13;;;;;;;9.60;2.30;;;;;;;;;;4942320;28;20058;-70
2021/09/29 18:14:39;;;;;;;16.05;2.88;;;;;;;;;;4947750;28;20106;-71
2021/09/29 18:17:06;;;;;;;12.38;2.33;;;;;;;;;;4941248;28;20056;-72
2021/09/29 18:19:39;;;;;;;9.32;2.83;;;;;;;;;;4944464;29;20114;-71
2021/09/29 18:22:05;;;;;;;12.85;2.05;;;;;;;;;;4945980;29;20418;-71
2021/09/29 18:24:32;;;;;;;7.03;1.50;;;;;;;;;;4941857;28;20062;-72
2021/09/29 18:26:58;;;;;;;15.07;2.92;;;;;;;;;;4948804;28;20054;-72
2021/09/29 18:29:25;;;;;;;13.38;3.25;;;;;;;;;;4949866;28;20110;-71
2021/09/29 18:31:52;;;;;;;12.75;2.63;;;;;;;;;;4951364;29;20031;-71
2021/09/29 18:34:20;;;;;;;8.85;1.95;;;;;;;;;;4941027;28;20345;-73
2021/09/29 18:36:46;;;;;;;12.95;2.22;;;;;;;;;;4943222;28;20051;-72
2021/09/29 18:39:15;;;;;;;10.38;1.63;;;;;;;;;;4944340;28;20425;-71
2021/09/29 18:41:41;;;;;;;10.45;2.08;;;;;;;;;;4950510;28;20027;-74
2021/09/29 18:44:08;;;;;;;9.45;1.70;;;;;;;;;;4945230;28;20023;-72
2021/09/29 18:46:35;;;;;;;8.05;1.52;;;;;;;;;;4949244;28;20027;-71
2021/09/29 18:49:05;;;;;;;14.75;1.70;;;;;;;;;;4948606;28;20054;-72
2021/09/29 18:51:31;;;;;;;9.18;1.40;;;;;;;;;;4945104;28;20131;-72
2021/09/29 19:07:28;;;;;;;15.52;2.20;;;;;;;;;;4947600;28;20110;-72
2021/09/29 19:09:54;;;;;;;11.15;2.05;;;;;;;;;;4946174;28;20036;-70
2021/09/29 19:12:20;;;;;;;10.90;2.63;;;;;;;;;;4944691;28;20030;-73
2021/09/29 19:14:46;;;;;;;11.07;2.20;;;;;;;;;;4937369;28;20055;-72
2021/09/29 19:17:14;;;;;;;8.63;1.70;;;;;;;;;;4947340;29;20023;-72
2021/09/29 19:19:40;;;;;;;13.77;1.98;;;;;;;;;;4947817;28;20027;-72
2021/09/29 19:22:06;;;;;;;14.57;2.47;;;;;;;;;;4946853;28;20126;-72
2021/09/29 19:24:32;;;;;;;15.07;2.30;;;;;;;;;;4945347;28;20019;-71
2021/09/29 19:26:58;;;;;;;10.93;2.78;;;;;;;;;;4961915;28;20039;-72